sensor_id;sensor_type;location;lat;lon;timestamp;pressure;altitude;pressure_sealevel;temperature;humidity
49122;BME280;35529;44.342;25.944;2023-07-30T00:02:17;100316.72;;;21.73;100.00
49122;BME280;35529;44.342;25.944;2023-07-30T00:04:44;100307.84;;;21.68;100.00
49122;BME280;35529;44.342;25.944;2023-07-30T00:07:10;100303.50;;;21.77;100.00
49122;BME280;35529;44.342;25.944;2023-07-30T00:09:37;100314.00;;;21.79;100.00
49122;BME280;35529;44.342;25.944;2023-07-30T00:12:04;100315.13;;;21.67;100.00
49122;BME280;35529;44.342;25.944;2023-07-30T00:14:30;100314.88;;;21.58;100.00
49122;BME280;35529;44.342;25.944;2023-07-30T00:16:56;100313.25;;;21.52;100.00
49122;BME280;35529;44.342;25.944;2023-07-30T00:19:22;100305.41;;;21.46;100.00
49122;BME280;35529;44.342;25.944;2023-07-30T00:21:49;100303.00;;;21.44;100.00
49122;BME280;35529;44.342;25.944;2023-07-30T00:24:15;100299.22;;;21.35;100.00
49122;BME280;35529;44.342;25.944;2023-07-30T00:26:41;100299.00;;;21.26;100.00
49122;BME280;35529;44.342;25.944;2023-07-30T00:29:07;100296.00;;;21.12;100.00
49122;BME280;35529;44.342;25.944;2023-07-30T00:31:33;100299.00;;;21.00;100.00
49122;BME280;35529;44.342;25.944;2023-07-30T00:33:59;100303.84;;;21.14;100.00
49122;BME280;35529;44.342;25.944;2023-07-30T00:36:25;100310.06;;;21.24;100.00
49122;BME280;35529;44.342;25.944;2023-07-30T00:38:51;100308.44;;;21.23;100.00
49122;BME280;35529;44.342;25.944;2023-07-30T00:41:22;100304.41;;;21.16;100.00
49122;BME280;35529;44.342;25.944;2023-07-30T00:43:48;100301.69;;;21.10;100.00
49122;BME280;35529;44.342;25.944;2023-07-30T00:46:17;100303.03;;;21.23;100.00
49122;BME280;35529;44.342;25.944;2023-07-30T00:48:43;100305.19;;;21.32;100.00
49122;BME280;35529;44.342;25.944;2023-07-30T00:51:09;100294.94;;;21.29;100.00
49122;BME280;35529;44.342;25.944;2023-07-30T00:53:38;100309.78;;;21.31;100.00
49122;BME280;35529;44.342;25.944;2023-07-30T00:56:04;100296.53;;;21.30;100.00
49122;BME280;35529;44.342;25.944;2023-07-30T00:58:31;100294.38;;;21.32;100.00
49122;BME280;35529;44.342;25.944;2023-07-30T01:00:58;100300.88;;;21.25;100.00
49122;BME280;35529;44.342;25.944;2023-07-30T01:03:24;100298.16;;;21.25;100.00
49122;BME280;35529;44.342;25.944;2023-07-30T01:05:51;100302.75;;;21.04;100.00
49122;BME280;35529;44.342;25.944;2023-07-30T01:08:17;100297.63;;;20.98;100.00
49122;BME280;35529;44.342;25.944;2023-07-30T01:10:43;100297.13;;;21.06;100.00
49122;BME280;35529;44.342;25.944;2023-07-30T01:13:09;100290.66;;;21.02;100.00
49122;BME280;35529;44.342;25.944;2023-07-30T01:15:36;100286.03;;;20.97;100.00
49122;BME280;35529;44.342;25.944;2023-07-30T01:18:03;100290.66;;;21.02;100.00
49122;BME280;35529;44.342;25.944;2023-07-30T01:20:30;100289.03;;;21.01;100.00
49122;BME280;35529;44.342;25.944;2023-07-30T01:22:57;100307.34;;;20.93;100.00
49122;BME280;35529;44.342;25.944;2023-07-30T01:25:23;100297.66;;;20.92;100.00
49122;BME280;35529;44.342;25.944;2023-07-30T01:27:51;100297.38;;;20.89;100.00
49122;BME280;35529;44.342;25.944;2023-07-30T01:30:22;100301.69;;;20.85;100.00
49122;BME280;35529;44.342;25.944;2023-07-30T01:32:51;100288.75;;;20.82;100.00
49122;BME280;35529;44.342;25.944;2023-07-30T01:35:19;100298.47;;;20.72;100.00
49122;BME280;35529;44.342;25.944;2023-07-30T01:37:46;100285.22;;;20.66;100.00
49122;BME280;35529;44.342;25.944;2023-07-30T01:40:12;100289.50;;;20.67;100.00
49122;BME280;35529;44.342;25.944;2023-07-30T01:42:38;100291.97;;;20.73;100.00
49122;BME280;35529;44.342;25.944;2023-07-30T01:45:05;100284.94;;;20.77;100.00
49122;BME280;35529;44.342;25.944;2023-07-30T01:47:31;100288.75;;;20.82;100.00
49122;BME280;35529;44.342;25.944;2023-07-30T01:49:57;100284.41;;;20.70;100.00
49122;BME280;35529;44.342;25.944;2023-07-30T01:52:23;100286.31;;;20.70;100.00
49122;BME280;35529;44.342;25.944;2023-07-30T01:54:49;100285.22;;;20.66;100.00
49122;BME280;35529;44.342;25.944;2023-07-30T01:57:15;100280.88;;;20.59;100.00
49122;BME280;35529;44.342;25.944;2023-07-30T01:59:42;100286.81;;;20.67;100.00
49122;BME280;35529;44.342;25.944;2023-07-30T02:02:08;100287.34;;;20.64;100.00
49122;BME280;35529;44.342;25.944;2023-07-30T02:04:34;100283.31;;;20.61;100.00
49122;BME280;35529;44.342;25.944;2023-07-30T02:07:01;100288.41;;;20.57;100.00
49122;BME280;35529;44.342;25.944;2023-07-30T02:09:27;100291.13;;;20.57;100.00
49122;BME280;35529;44.342;25.944;2023-07-30T02:11:53;100288.69;;;20.51;100.00
49122;BME280;35529;44.342;25.944;2023-07-30T02:14:19;100288.97;;;20.54;100.00
49122;BME280;35529;44.342;25.944;2023-07-30T02:16:46;100284.34;;;20.39;100.00
49122;BME280;35529;44.342;25.944;2023-07-30T02:19:12;100278.13;;;20.29;100.00
49122;BME280;35529;44.342;25.944;2023-07-30T02:21:38;100284.31;;;20.19;100.00
49122;BME280;35529;44.342;25.944;2023-07-30T02:24:08;100286.44;;;20.01;100.00
49122;BME280;35529;44.342;25.944;2023-07-30T02:26:40;100291.28;;;20.04;100.00
49122;BME280;35529;44.342;25.944;2023-07-30T02:29:06;100287.22;;;20.02;100.00
49122;BME280;35529;44.342;25.944;2023-07-30T02:31:32;100288.59;;;20.04;100.00
49122;BME280;35529;44.342;25.944;2023-07-30T02:33:59;100284.81;;;20.05;100.00
49122;BME280;35529;44.342;25.944;2023-07-30T02:36:25;100292.91;;;20.05;100.00
49122;BME280;35529;44.342;25.944;2023-07-30T02:38:51;100295.63;;;20.16;100.00
49122;BME280;35529;44.342;25.944;2023-07-30T02:41:17;100293.47;;;20.18;100.00
49122;BME280;35529;44.342;25.944;2023-07-30T02:43:43;100295.09;;;20.14;100.00
49122;BME280;35529;44.342;25.944;2023-07-30T02:46:09;100293.50;;;20.23;100.00
49122;BME280;35529;44.342;25.944;2023-07-30T02:48:35;100290.81;;;20.23;100.00
49122;BME280;35529;44.342;25.944;2023-07-30T02:51:01;100292.38;;;20.14;100.00
49122;BME280;35529;44.342;25.944;2023-07-30T02:53:27;100297.19;;;20.06;100.00
49122;BME280;35529;44.342;25.944;2023-07-30T02:55:54;100295.84;;;19.99;100.00
49122;BME280;35529;44.342;25.944;2023-07-30T02:58:20;100295.59;;;20.05;100.00
49122;BME280;35529;44.342;25.944;2023-07-30T03:00:46;100300.97;;;20.10;100.00
49122;BME280;35529;44.342;25.944;2023-07-30T03:03:12;100305.59;;;20.15;100.00
49122;BME280;35529;44.342;25.944;2023-07-30T03:05:41;100302.09;;;20.20;100.00
49122;BME280;35529;44.342;25.944;2023-07-30T03:08:07;100302.34;;;20.13;100.00
49122;BME280;35529;44.342;25.944;2023-07-30T03:10:33;100303.63;;;19.95;100.00
49122;BME280;35529;44.342;25.944;2023-07-30T03:12:59;100306.81;;;19.82;100.00
49122;BME280;35529;44.342;25.944;2023-07-30T03:15:26;100297.00;;;19.65;100.00
49122;BME280;35529;44.342;25.944;2023-07-30T03:42:37;100313.38;;;20.06;100.00
49122;BME280;35529;44.342;25.944;2023-07-30T04:05:51;100313.25;;;20.65;100.00
49122;BME280;35529;44.342;25.944;2023-07-30T04:08:17;100319.22;;;20.72;100.00
49122;BME280;35529;44.342;25.944;2023-07-30T04:14:10;100335.44;;;21.03;100.00
49122;BME280;35529;44.342;25.944;2023-07-30T04:16:56;100331.94;;;21.18;100.00
49122;BME280;35529;44.342;25.944;2023-07-30T04:27:18;100336.50;;;21.27;100.00
49122;BME280;35529;44.342;25.944;2023-07-30T04:33:07;100334.31;;;21.50;100.00
49122;BME280;35529;44.342;25.944;2023-07-30T04:47:52;100342.38;;;21.86;100.00
49122;BME280;35529;44.342;25.944;2023-07-30T04:58:23;100329.97;;;22.40;100.00
49122;BME280;35529;44.342;25.944;2023-07-30T05:07:44;100339.22;;;22.79;100.00
49122;BME280;35529;44.342;25.944;2023-07-30T05:10:33;100333.16;;;22.92;100.00
49122;BME280;35529;44.342;25.944;2023-07-30T05:39:22;100351.16;;;24.39;100.00
49122;BME280;35529;44.342;25.944;2023-07-30T05:51:52;100354.00;;;25.05;100.00
49122;BME280;35529;44.342;25.944;2023-07-30T05:54:35;100351.03;;;25.20;100.00
49122;BME280;35529;44.342;25.944;2023-07-30T06:19:27;100341.44;;;26.39;100.00
49122;BME280;35529;44.342;25.944;2023-07-30T06:21:54;100337.66;;;26.49;100.00
49122;BME280;35529;44.342;25.944;2023-07-30T06:24:20;100335.50;;;26.60;100.00
49122;BME280;35529;44.342;25.944;2023-07-30T06:26:46;100329.84;;;26.70;100.00
49122;BME280;35529;44.342;25.944;2023-07-30T06:29:12;100328.13;;;26.74;100.00
49122;BME280;35529;44.342;25.944;2023-07-30T06:31:38;100328.81;;;26.80;100.00
49122;BME280;35529;44.342;25.944;2023-07-30T06:34:04;100330.50;;;26.90;100.00
49122;BME280;35529;44.342;25.944;2023-07-30T06:36:30;100319.63;;;26.99;100.00
49122;BME280;35529;44.342;25.944;2023-07-30T06:38:56;100325.03;;;27.13;100.00
49122;BME280;35529;44.342;25.944;2023-07-30T06:41:22;100319.47;;;27.26;100.00
49122;BME280;35529;44.342;25.944;2023-07-30T06:43:48;100325.69;;;27.41;100.00
49122;BME280;35529;44.342;25.944;2023-07-30T06:46:15;100320.09;;;27.55;100.00
49122;BME280;35529;44.342;25.944;2023-07-30T06:48:41;100325.91;;;27.62;100.00
49122;BME280;35529;44.342;25.944;2023-07-30T06:51:07;100312.31;;;27.71;100.00
49122;BME280;35529;44.342;25.944;2023-07-30T06:53:33;100317.47;;;27.81;100.00
49122;BME280;35529;44.342;25.944;2023-07-30T06:55:59;100313.13;;;27.89;100.00
49122;BME280;35529;44.342;25.944;2023-07-30T06:58:26;100318.31;;;27.99;100.00
49122;BME280;35529;44.342;25.944;2023-07-30T07:00:52;100312.59;;;28.09;100.00
49122;BME280;35529;44.342;25.944;2023-07-30T07:03:27;100314.03;;;28.24;100.00
49122;BME280;35529;44.342;25.944;2023-07-30T07:05:56;100311.31;;;28.33;100.00
49122;BME280;35529;44.342;25.944;2023-07-30T07:08:28;100303.91;;;28.42;100.00
49122;BME280;35529;44.342;25.944;2023-07-30T07:11:20;100308.59;;;28.51;100.00
49122;BME280;35529;44.342;25.944;2023-07-30T07:14:21;100295.28;;;28.67;100.00
49122;BME280;35529;44.342;25.944;2023-07-30T07:19:51;100296.03;;;28.85;100.00
49122;BME280;35529;44.342;25.944;2023-07-30T07:22:28;100294.88;;;28.95;100.00
49122;BME280;35529;44.342;25.944;2023-07-30T07:24:59;100302.56;;;29.10;100.00
49122;BME280;35529;44.342;25.944;2023-07-30T07:27:53;100295.47;;;29.18;100.00
49122;BME280;35529;44.342;25.944;2023-07-30T07:30:27;100294.66;;;29.26;100.00
49122;BME280;35529;44.342;25.944;2023-07-30T07:39:21;100288.88;;;29.57;100.00
49122;BME280;35529;44.342;25.944;2023-07-30T07:44:30;100289.13;;;29.73;100.00
49122;BME280;35529;44.342;25.944;2023-07-30T07:53:25;100275.66;;;29.98;100.00
49122;BME280;35529;44.342;25.944;2023-07-30T07:58:51;100279.19;;;30.20;100.00
49122;BME280;35529;44.342;25.944;2023-07-30T08:07:57;100265.09;;;30.30;100.00
49122;BME280;35529;44.342;25.944;2023-07-30T08:10:37;100257.00;;;30.34;100.00
49122;BME280;35529;44.342;25.944;2023-07-30T08:13:03;100266.88;;;30.47;100.00
49122;BME280;35529;44.342;25.944;2023-07-30T08:15:29;100263.94;;;30.52;100.00
49122;BME280;35529;44.342;25.944;2023-07-30T08:17:56;100261.00;;;30.57;100.00
49122;BME280;35529;44.342;25.944;2023-07-30T08:20:22;100255.75;;;30.65;100.00
49122;BME280;35529;44.342;25.944;2023-07-30T08:22:48;100260.13;;;30.78;100.00
49122;BME280;35529;44.342;25.944;2023-07-30T08:25:14;100256.13;;;30.75;100.00
49122;BME280;35529;44.342;25.944;2023-07-30T08:27:40;100251.56;;;30.80;100.00
49122;BME280;35529;44.342;25.944;2023-07-30T08:30:07;100248.50;;;30.81;100.00
49122;BME280;35529;44.342;25.944;2023-07-30T08:32:33;100249.38;;;30.73;100.00
49122;BME280;35529;44.342;25.944;2023-07-30T08:34:59;100259.00;;;30.79;100.00
49122;BME280;35529;44.342;25.944;2023-07-30T08:37:26;100247.59;;;30.89;100.00
49122;BME280;35529;44.342;25.944;2023-07-30T08:39:52;100251.25;;;30.93;100.00
49122;BME280;35529;44.342;25.944;2023-07-30T08:42:18;100246.00;;;31.01;100.00
49122;BME280;35529;44.342;25.944;2023-07-30T08:44:44;100243.06;;;31.06;100.00
49122;BME280;35529;44.342;25.944;2023-07-30T08:47:10;100239.78;;;31.13;100.00
49122;BME280;35529;44.342;25.944;2023-07-30T08:49:36;100234.06;;;31.18;100.00
49122;BME280;35529;44.342;25.944;2023-07-30T08:52:03;100235.88;;;31.26;100.00
49122;BME280;35529;44.342;25.944;2023-07-30T08:54:30;100242.41;;;31.34;100.00
49122;BME280;35529;44.342;25.944;2023-07-30T08:56:56;100223.88;;;31.43;100.00
49122;BME280;35529;44.342;25.944;2023-07-30T08:59:23;100232.22;;;31.47;100.00
49122;BME280;35529;44.342;25.944;2023-07-30T09:01:51;100226.59;;;31.55;100.00
49122;BME280;35529;44.342;25.944;2023-07-30T09:04:22;100231.06;;;31.60;100.00
49122;BME280;35529;44.342;25.944;2023-07-30T09:10:11;100233.00;;;31.84;100.00
49122;BME280;35529;44.342;25.944;2023-07-30T09:23:56;100212.53;;;32.10;100.00
49122;BME280;35529;44.342;25.944;2023-07-30T09:39:38;100197.50;;;32.48;100.00
49122;BME280;35529;44.342;25.944;2023-07-30T09:45:44;100191.94;;;32.61;100.00
49122;BME280;35529;44.342;25.944;2023-07-30T09:48:10;100199.31;;;32.72;100.00
49122;BME280;35529;44.342;25.944;2023-07-30T09:50:37;100205.03;;;32.80;100.00
49122;BME280;35529;44.342;25.944;2023-07-30T09:53:03;100194.19;;;32.87;100.00
49122;BME280;35529;44.342;25.944;2023-07-30T09:55:30;100195.94;;;32.95;100.00
49122;BME280;35529;44.342;25.944;2023-07-30T09:57:56;100187.53;;;33.04;100.00
49122;BME280;35529;44.342;25.944;2023-07-30T10:00:22;100187.25;;;33.09;100.00
49122;BME280;35529;44.342;25.944;2023-07-30T10:02:49;100179.88;;;33.13;100.00
49122;BME280;35529;44.342;25.944;2023-07-30T10:05:19;100174.19;;;33.22;100.00
49122;BME280;35529;44.342;25.944;2023-07-30T10:07:51;100167.28;;;33.28;100.00
49122;BME280;35529;44.342;25.944;2023-07-30T10:10:19;100167.88;;;33.37;100.00
49122;BME280;35529;44.342;25.944;2023-07-30T10:12:46;100172.09;;;33.51;100.00
49122;BME280;35529;44.342;25.944;2023-07-30T10:15:13;100152.97;;;33.58;90.80
49122;BME280;35529;44.342;25.944;2023-07-30T10:17:39;100156.69;;;33.66;100.00
49122;BME280;35529;44.342;25.944;2023-07-30T10:23:04;100155.91;;;33.85;100.00
49122;BME280;35529;44.342;25.944;2023-07-30T10:25:44;100151.72;;;33.91;100.00
49122;BME280;35529;44.342;25.944;2023-07-30T10:30:59;100142.31;;;34.15;100.00
49122;BME280;35529;44.342;25.944;2023-07-30T10:33:43;100146.13;;;34.30;100.00
49122;BME280;35529;44.342;25.944;2023-07-30T10:36:09;100134.16;;;34.42;100.00
49122;BME280;35529;44.342;25.944;2023-07-30T10:38:35;100134.66;;;34.48;96.86
49122;BME280;35529;44.342;25.944;2023-07-30T10:43:28;100140.22;;;34.28;100.00
49122;BME280;35529;44.342;25.944;2023-07-30T10:45:55;100137.75;;;34.23;100.00
49122;BME280;35529;44.342;25.944;2023-07-30T10:48:42;100127.31;;;34.32;100.00
49122;BME280;35529;44.342;25.944;2023-07-30T10:51:11;100131.97;;;34.51;100.00
49122;BME280;35529;44.342;25.944;2023-07-30T10:53:37;100136.50;;;34.63;100.00
49122;BME280;35529;44.342;25.944;2023-07-30T10:56:05;100129.91;;;34.71;96.58
49122;BME280;35529;44.342;25.944;2023-07-30T10:58:33;100121.84;;;34.82;90.75
49122;BME280;35529;44.342;25.944;2023-07-30T11:01:03;100112.63;;;34.98;100.00
49122;BME280;35529;44.342;25.944;2023-07-30T11:03:29;100114.34;;;35.10;90.77
49122;BME280;35529;44.342;25.944;2023-07-30T11:05:57;100108.69;;;35.29;100.00
49122;BME280;35529;44.342;25.944;2023-07-30T11:08:39;100106.16;;;35.44;100.00
49122;BME280;35529;44.342;25.944;2023-07-30T11:11:06;100104.63;;;35.46;100.00
49122;BME280;35529;44.342;25.944;2023-07-30T11:13:44;100105.03;;;35.48;100.00
49122;BME280;35529;44.342;25.944;2023-07-30T11:16:14;100090.47;;;35.51;94.52
49122;BME280;35529;44.342;25.944;2023-07-30T11:18:40;100098.25;;;35.42;84.52
49122;BME280;35529;44.342;25.944;2023-07-30T11:21:07;100091.28;;;35.52;94.46
49122;BME280;35529;44.342;25.944;2023-07-30T11:23:34;100093.81;;;35.68;83.82
49122;BME280;35529;44.342;25.944;2023-07-30T11:26:01;100086.75;;;35.74;97.82
49122;BME280;35529;44.342;25.944;2023-07-30T11:28:31;100077.28;;;35.71;77.06
49122;BME280;35529;44.342;25.944;2023-07-30T11:31:01;100082.50;;;35.80;97.40
49122;BME280;35529;44.342;25.944;2023-07-30T11:33:28;100068.81;;;35.91;82.56
49122;BME280;35529;44.342;25.944;2023-07-30T11:35:58;100070.06;;;35.97;85.63
49122;BME280;35529;44.342;25.944;2023-07-30T11:38:26;100069.53;;;35.84;77.92
49122;BME280;35529;44.342;25.944;2023-07-30T11:40:53;100067.06;;;35.76;79.28
49122;BME280;35529;44.342;25.944;2023-07-30T11:43:20;100061.78;;;35.63;85.44
49122;BME280;35529;44.342;25.944;2023-07-30T11:45:46;100066.16;;;35.64;100.00
49122;BME280;35529;44.342;25.944;2023-07-30T11:48:13;100062.34;;;35.76;100.00
49122;BME280;35529;44.342;25.944;2023-07-30T11:50:49;100057.00;;;35.94;100.00
49122;BME280;35529;44.342;25.944;2023-07-30T11:53:16;100050.88;;;36.12;100.00
49122;BME280;35529;44.342;25.944;2023-07-30T11:55:43;100039.22;;;36.33;100.00
49122;BME280;35529;44.342;25.944;2023-07-30T11:58:10;100042.47;;;36.46;100.00
49122;BME280;35529;44.342;25.944;2023-07-30T12:00:36;100038.53;;;36.47;100.00
49122;BME280;35529;44.342;25.944;2023-07-30T12:03:04;100044.72;;;36.33;100.00
49122;BME280;35529;44.342;25.944;2023-07-30T12:05:34;100034.16;;;36.01;100.00
49122;BME280;35529;44.342;25.944;2023-07-30T12:08:01;100029.47;;;36.01;100.00
49122;BME280;35529;44.342;25.944;2023-07-30T12:10:42;100027.19;;;36.14;92.73
49122;BME280;35529;44.342;25.944;2023-07-30T12:13:14;100018.56;;;36.23;81.62
49122;BME280;35529;44.342;25.944;2023-07-30T12:16:02;100019.47;;;36.34;100.00
49122;BME280;35529;44.342;25.944;2023-07-30T12:18:29;100017.66;;;36.56;93.42
49122;BME280;35529;44.342;25.944;2023-07-30T12:20:59;100010.19;;;36.64;88.35
49122;BME280;35529;44.342;25.944;2023-07-30T12:27:10;100015.19;;;36.40;100.00
49122;BME280;35529;44.342;25.944;2023-07-30T12:32:53;99999.25;;;36.82;92.34
49122;BME280;35529;44.342;25.944;2023-07-30T12:35:42;99991.47;;;37.10;100.00
49122;BME280;35529;44.342;25.944;2023-07-30T12:41:21;99989.59;;;37.35;74.86
49122;BME280;35529;44.342;25.944;2023-07-30T12:43:53;99984.78;;;37.25;90.18
49122;BME280;35529;44.342;25.944;2023-07-30T12:46:21;99981.66;;;37.37;87.53
49122;BME280;35529;44.342;25.944;2023-07-30T12:48:47;99979.31;;;37.47;87.86
49122;BME280;35529;44.342;25.944;2023-07-30T12:51:14;99978.13;;;37.37;68.64
49122;BME280;35529;44.342;25.944;2023-07-30T12:53:40;99968.19;;;37.21;69.35
49122;BME280;35529;44.342;25.944;2023-07-30T12:56:06;99962.97;;;37.02;66.94
49122;BME280;35529;44.342;25.944;2023-07-30T12:58:32;99962.06;;;36.76;68.01
49122;BME280;35529;44.342;25.944;2023-07-30T13:00:58;99969.00;;;36.48;63.29
49122;BME280;35529;44.342;25.944;2023-07-30T13:03:25;99964.28;;;36.49;75.01
49122;BME280;35529;44.342;25.944;2023-07-30T13:05:51;99958.63;;;36.31;69.86
49122;BME280;35529;44.342;25.944;2023-07-30T13:08:17;99954.13;;;36.08;76.42
49122;BME280;35529;44.342;25.944;2023-07-30T13:10:43;99947.00;;;36.07;75.96
49122;BME280;35529;44.342;25.944;2023-07-30T13:13:09;99944.47;;;36.36;68.98
49122;BME280;35529;44.342;25.944;2023-07-30T13:15:35;99935.34;;;37.16;72.91
49122;BME280;35529;44.342;25.944;2023-07-30T13:18:03;99937.00;;;38.11;68.13
49122;BME280;35529;44.342;25.944;2023-07-30T13:20:30;99942.38;;;38.87;61.37
49122;BME280;35529;44.342;25.944;2023-07-30T13:22:57;99941.69;;;39.43;76.26
49122;BME280;35529;44.342;25.944;2023-07-30T13:25:23;99933.78;;;39.90;56.37
49122;BME280;35529;44.342;25.944;2023-07-30T13:27:52;99937.38;;;40.32;43.30
49122;BME280;35529;44.342;25.944;2023-07-30T13:30:19;99930.59;;;40.68;50.91
49122;BME280;35529;44.342;25.944;2023-07-30T13:32:47;99933.25;;;40.44;57.50
49122;BME280;35529;44.342;25.944;2023-07-30T13:35:13;99935.22;;;40.09;49.56
49122;BME280;35529;44.342;25.944;2023-07-30T13:37:40;99934.03;;;40.07;59.87
49122;BME280;35529;44.342;25.944;2023-07-30T13:40:06;99924.06;;;40.13;55.54
49122;BME280;35529;44.342;25.944;2023-07-30T13:42:32;99917.50;;;40.30;55.88
49122;BME280;35529;44.342;25.944;2023-07-30T13:45:01;99918.25;;;40.34;58.76
49122;BME280;35529;44.342;25.944;2023-07-30T13:47:27;99918.72;;;40.29;60.07
49122;BME280;35529;44.342;25.944;2023-07-30T13:49:53;99916.47;;;40.17;65.33
49122;BME280;35529;44.342;25.944;2023-07-30T13:52:20;99909.06;;;39.99;68.01
49122;BME280;35529;44.342;25.944;2023-07-30T13:54:46;99911.53;;;39.90;72.23
49122;BME280;35529;44.342;25.944;2023-07-30T13:57:13;99907.38;;;39.71;68.75
49122;BME280;35529;44.342;25.944;2023-07-30T13:59:47;99908.66;;;39.52;71.95
49122;BME280;35529;44.342;25.944;2023-07-30T14:02:15;99906.44;;;39.36;75.95
49122;BME280;35529;44.342;25.944;2023-07-30T14:04:42;99904.91;;;39.24;73.31
49122;BME280;35529;44.342;25.944;2023-07-30T14:07:10;99902.56;;;39.12;76.13
49122;BME280;35529;44.342;25.944;2023-07-30T14:09:36;99901.03;;;39.03;75.51
49122;BME280;35529;44.342;25.944;2023-07-30T14:12:03;99897.19;;;38.83;71.01
49122;BME280;35529;44.342;25.944;2023-07-30T14:14:32;99896.03;;;38.80;78.73
49122;BME280;35529;44.342;25.944;2023-07-30T14:16:58;99889.72;;;38.76;62.26
49122;BME280;35529;44.342;25.944;2023-07-30T14:19:24;99881.38;;;38.76;62.29
49122;BME280;35529;44.342;25.944;2023-07-30T14:21:50;99878.97;;;38.82;67.84
49122;BME280;35529;44.342;25.944;2023-07-30T14:24:17;99879.78;;;38.82;78.88
49122;BME280;35529;44.342;25.944;2023-07-30T14:26:45;99878.19;;;38.78;73.62
49122;BME280;35529;44.342;25.944;2023-07-30T14:29:11;99873.06;;;38.80;82.70
49122;BME280;35529;44.342;25.944;2023-07-30T14:31:38;99866.34;;;38.73;67.83
49122;BME280;35529;44.342;25.944;2023-07-30T14:34:04;99867.19;;;38.60;66.15
49122;BME280;35529;44.342;25.944;2023-07-30T14:36:30;99868.81;;;38.46;72.70
49122;BME280;35529;44.342;25.944;2023-07-30T14:38:56;99856.19;;;38.31;71.06
49122;BME280;35529;44.342;25.944;2023-07-30T14:41:40;99855.78;;;38.18;67.42
49122;BME280;35529;44.342;25.944;2023-07-30T14:44:06;99860.19;;;38.04;73.14
49122;BME280;35529;44.342;25.944;2023-07-30T14:46:33;99855.47;;;37.98;79.67
49122;BME280;35529;44.342;25.944;2023-07-30T14:48:59;99855.47;;;37.90;75.42
49122;BME280;35529;44.342;25.944;2023-07-30T14:51:26;99847.56;;;37.89;81.94
49122;BME280;35529;44.342;25.944;2023-07-30T14:53:57;99850.38;;;37.82;79.65
49122;BME280;35529;44.342;25.944;2023-07-30T14:56:23;99841.25;;;37.81;75.34
49122;BME280;35529;44.342;25.944;2023-07-30T14:58:49;99838.00;;;38.08;74.65
49122;BME280;35529;44.342;25.944;2023-07-30T15:01:15;99842.91;;;38.82;75.87
49122;BME280;35529;44.342;25.944;2023-07-30T15:03:42;99841.41;;;40.13;85.07
49122;BME280;35529;44.342;25.944;2023-07-30T15:06:08;99827.84;;;41.79;64.76
49122;BME280;35529;44.342;25.944;2023-07-30T15:08:34;99826.44;;;43.21;70.03
49122;BME280;35529;44.342;25.944;2023-07-30T15:11:00;99820.44;;;44.53;80.97
49122;BME280;35529;44.342;25.944;2023-07-30T15:13:27;99816.97;;;45.61;78.69
49122;BME280;35529;44.342;25.944;2023-07-30T15:15:53;99816.22;;;46.68;59.71
49122;BME280;35529;44.342;25.944;2023-07-30T15:18:19;99820.13;;;47.30;58.98
49122;BME280;35529;44.342;25.944;2023-07-30T15:20:47;99820.59;;;47.93;53.23
49122;BME280;35529;44.342;25.944;2023-07-30T15:23:13;99813.53;;;48.59;50.45
49122;BME280;35529;44.342;25.944;2023-07-30T15:25:39;99822.59;;;48.97;50.68
49122;BME280;35529;44.342;25.944;2023-07-30T15:28:05;99810.22;;;49.19;52.22
49122;BME280;35529;44.342;25.944;2023-07-30T15:30:32;99810.22;;;49.43;54.75
49122;BME280;35529;44.342;25.944;2023-07-30T15:32:58;99803.53;;;49.70;43.11
49122;BME280;35529;44.342;25.944;2023-07-30T15:35:26;99808.63;;;50.11;47.52
49122;BME280;35529;44.342;25.944;2023-07-30T15:37:52;99796.44;;;50.20;43.99
49122;BME280;35529;44.342;25.944;2023-07-30T15:40:21;99801.31;;;50.34;52.70
49122;BME280;35529;44.342;25.944;2023-07-30T15:42:47;99797.03;;;50.39;43.27
49122;BME280;35529;44.342;25.944;2023-07-30T15:45:13;99799.31;;;50.55;49.64
49122;BME280;35529;44.342;25.944;2023-07-30T15:47:41;99801.91;;;50.74;48.50
49122;BME280;35529;44.342;25.944;2023-07-30T15:50:08;99797.06;;;50.59;41.21
49122;BME280;35529;44.342;25.944;2023-07-30T15:52:37;99785.88;;;50.50;38.76
49122;BME280;35529;44.342;25.944;2023-07-30T15:55:29;99790.63;;;50.59;46.40
49122;BME280;35529;44.342;25.944;2023-07-30T15:58:18;99796.81;;;50.42;40.38
49122;BME280;35529;44.342;25.944;2023-07-30T16:00:59;99791.25;;;48.71;47.09
49122;BME280;35529;44.342;25.944;2023-07-30T16:03:32;99790.94;;;47.46;54.17
49122;BME280;35529;44.342;25.944;2023-07-30T16:06:21;99792.94;;;47.92;49.63
49122;BME280;35529;44.342;25.944;2023-07-30T16:08:48;99787.22;;;48.62;55.23
49122;BME280;35529;44.342;25.944;2023-07-30T16:11:14;99791.00;;;48.59;47.84
49122;BME280;35529;44.342;25.944;2023-07-30T16:13:42;99790.47;;;48.37;40.86
49122;BME280;35529;44.342;25.944;2023-07-30T16:16:20;99781.13;;;48.12;51.18
49122;BME280;35529;44.342;25.944;2023-07-30T16:18:52;99784.03;;;47.75;42.12
49122;BME280;35529;44.342;25.944;2023-07-30T16:21:36;99785.00;;;47.53;41.35
49122;BME280;35529;44.342;25.944;2023-07-30T16:24:26;99785.22;;;46.99;47.12
49122;BME280;35529;44.342;25.944;2023-07-30T16:27:12;99774.22;;;47.05;39.04
49122;BME280;35529;44.342;25.944;2023-07-30T16:29:38;99783.94;;;46.10;41.71